sensor_id;sensor_type;location;lat;lon;timestamp;pressure;altitude;pressure_sealevel;temperature;humidity
54882;BME280;40775;51.448;4.742;2023-05-29T00:00:12;102210.63;;;15.09;100.00
54882;BME280;40775;51.448;4.742;2023-05-29T00:02:40;102212.59;;;15.20;100.00
54882;BME280;40775;51.448;4.742;2023-05-29T00:05:11;102211.66;;;15.16;100.00
54882;BME280;40775;51.448;4.742;2023-05-29T00:07:40;102214.44;;;15.22;100.00
54882;BME280;40775;51.448;4.742;2023-05-29T00:10:09;102212.22;;;15.04;100.00
54882;BME280;40775;51.448;4.742;2023-05-29T00:12:38;102225.44;;;15.03;100.00
54882;BME280;40775;51.448;4.742;2023-05-29T00:15:06;102225.25;;;14.95;100.00
54882;BME280;40775;51.448;4.742;2023-05-29T00:17:33;102232.47;;;15.02;100.00
54882;BME280;40775;51.448;4.742;2023-05-29T00:20:02;102226.91;;;14.90;100.00
54882;BME280;40775;51.448;4.742;2023-05-29T00:22:33;102232.09;;;14.87;100.00
54882;BME280;40775;51.448;4.742;2023-05-29T00:25:05;102236.47;;;14.85;100.00
54882;BME280;40775;51.448;4.742;2023-05-29T00:27:32;102233.59;;;14.77;100.00
54882;BME280;40775;51.448;4.742;2023-05-29T00:30:01;102227.44;;;14.77;100.00
54882;BME280;40775;51.448;4.742;2023-05-29T00:32:28;102235.50;;;14.81;100.00
54882;BME280;40775;51.448;4.742;2023-05-29T00:34:55;102234.28;;;14.69;100.00
54882;BME280;40775;51.448;4.742;2023-05-29T00:37:22;102246.03;;;14.47;100.00
54882;BME280;40775;51.448;4.742;2023-05-29T00:39:50;102236.50;;;14.52;100.00
54882;BME280;40775;51.448;4.742;2023-05-29T00:42:17;102241.03;;;14.58;100.00
54882;BME280;40775;51.448;4.742;2023-05-29T00:44:44;102249.97;;;14.63;100.00
54882;BME280;40775;51.448;4.742;2023-05-29T00:47:11;102240.78;;;14.48;100.00
54882;BME280;40775;51.448;4.742;2023-05-29T00:49:39;102252.16;;;14.46;100.00
54882;BME280;40775;51.448;4.742;2023-05-29T00:52:07;102246.97;;;14.49;100.00
54882;BME280;40775;51.448;4.742;2023-05-29T00:54:36;102244.94;;;14.40;100.00
54882;BME280;40775;51.448;4.742;2023-05-29T00:57:04;102255.28;;;14.31;100.00
54882;BME280;40775;51.448;4.742;2023-05-29T00:59:33;102246.50;;;14.32;100.00
54882;BME280;40775;51.448;4.742;2023-05-29T01:02:02;102252.47;;;14.25;100.00
54882;BME280;40775;51.448;4.742;2023-05-29T01:04:29;102248.69;;;14.17;100.00
54882;BME280;40775;51.448;4.742;2023-05-29T01:07:03;102257.50;;;14.17;100.00
54882;BME280;40775;51.448;4.742;2023-05-29T01:09:31;102250.06;;;14.03;100.00
54882;BME280;40775;51.448;4.742;2023-05-29T01:12:31;102258.28;;;14.13;100.00
54882;BME280;40775;51.448;4.742;2023-05-29T01:23:52;102259.81;;;13.75;100.00
54882;BME280;40775;51.448;4.742;2023-05-29T01:27:00;102264.56;;;13.87;100.00
54882;BME280;40775;51.448;4.742;2023-05-29T01:29:34;102261.59;;;13.76;100.00
54882;BME280;40775;51.448;4.742;2023-05-29T01:32:02;102261.59;;;13.76;100.00
54882;BME280;40775;51.448;4.742;2023-05-29T01:34:30;102261.78;;;13.82;100.00
54882;BME280;40775;51.448;4.742;2023-05-29T01:36:57;102261.16;;;13.63;100.00
54882;BME280;40775;51.448;4.742;2023-05-29T01:39:25;102268.28;;;13.65;100.00
54882;BME280;40775;51.448;4.742;2023-05-29T01:41:53;102271.00;;;13.68;100.00
54882;BME280;40775;51.448;4.742;2023-05-29T01:44:21;102273.78;;;13.71;100.00
54882;BME280;40775;51.448;4.742;2023-05-29T01:46:50;102276.19;;;13.65;100.00
54882;BME280;40775;51.448;4.742;2023-05-29T01:49:18;102271.91;;;13.69;100.00
54882;BME280;40775;51.448;4.742;2023-05-29T01:51:45;102266.22;;;13.55;100.00
54882;BME280;40775;51.448;4.742;2023-05-29T01:54:12;102268.19;;;13.62;100.00
54882;BME280;40775;51.448;4.742;2023-05-29T01:56:42;102264.75;;;13.65;100.00
54882;BME280;40775;51.448;4.742;2023-05-29T01:59:10;102270.38;;;13.47;100.00
54882;BME280;40775;51.448;4.742;2023-05-29T02:01:40;102274.75;;;13.46;100.00
54882;BME280;40775;51.448;4.742;2023-05-29T02:04:07;102272.25;;;13.51;100.00
54882;BME280;40775;51.448;4.742;2023-05-29T02:06:34;102275.03;;;13.55;100.00
54882;BME280;40775;51.448;4.742;2023-05-29T02:09:02;102270.50;;;13.51;100.00
54882;BME280;40775;51.448;4.742;2023-05-29T02:11:29;102276.50;;;13.46;100.00
54882;BME280;40775;51.448;4.742;2023-05-29T02:13:59;102266.88;;;13.48;100.00
54882;BME280;40775;51.448;4.742;2023-05-29T02:16:29;102269.22;;;13.39;100.00
54882;BME280;40775;51.448;4.742;2023-05-29T02:19:01;102268.28;;;13.37;100.00
54882;BME280;40775;51.448;4.742;2023-05-29T02:21:29;102265.41;;;13.29;100.00
54882;BME280;40775;51.448;4.742;2023-05-29T02:23:56;102280.47;;;13.33;100.00
54882;BME280;40775;51.448;4.742;2023-05-29T02:26:23;102275.06;;;13.28;100.00
54882;BME280;40775;51.448;4.742;2023-05-29T02:28:50;102285.19;;;13.16;100.00
54882;BME280;40775;51.448;4.742;2023-05-29T02:31:17;102281.09;;;13.24;100.00
54882;BME280;40775;51.448;4.742;2023-05-29T02:33:44;102291.31;;;13.15;100.00
54882;BME280;40775;51.448;4.742;2023-05-29T02:36:11;102287.00;;;13.17;100.00
54882;BME280;40775;51.448;4.742;2023-05-29T02:38:39;102282.56;;;13.16;100.00
54882;BME280;40775;51.448;4.742;2023-05-29T02:41:06;102282.41;;;13.13;100.00
54882;BME280;40775;51.448;4.742;2023-05-29T02:43:34;102287.66;;;13.12;100.00
54882;BME280;40775;51.448;4.742;2023-05-29T02:46:01;102294.56;;;13.08;100.00
54882;BME280;40775;51.448;4.742;2023-05-29T02:48:28;102299.63;;;13.02;100.00
54882;BME280;40775;51.448;4.742;2023-05-29T02:50:56;102299.78;;;13.07;100.00
54882;BME280;40775;51.448;4.742;2023-05-29T02:53:23;102292.47;;;12.98;100.00
54882;BME280;40775;51.448;4.742;2023-05-29T02:55:50;102300.47;;;13.01;100.00
54882;BME280;40775;51.448;4.742;2023-05-29T02:58:18;102295.84;;;12.94;100.00
54882;BME280;40775;51.448;4.742;2023-05-29T03:00:45;102296.66;;;12.91;100.00
54882;BME280;40775;51.448;4.742;2023-05-29T03:03:13;102289.47;;;12.87;100.00
54882;BME280;40775;51.448;4.742;2023-05-29T03:05:40;102296.13;;;12.76;100.00
54882;BME280;40775;51.448;4.742;2023-05-29T03:08:07;102288.34;;;12.81;100.00
54882;BME280;40775;51.448;4.742;2023-05-29T03:10:34;102290.31;;;12.86;100.00
54882;BME280;40775;51.448;4.742;2023-05-29T03:13:01;102286.09;;;12.66;100.00
54882;BME280;40775;51.448;4.742;2023-05-29T03:15:29;102290.75;;;12.73;100.00
54882;BME280;40775;51.448;4.742;2023-05-29T03:17:56;102288.78;;;12.67;100.00
54882;BME280;40775;51.448;4.742;2023-05-29T03:20:23;102285.56;;;12.76;100.00
54882;BME280;40775;51.448;4.742;2023-05-29T03:22:50;102285.31;;;12.68;100.00
54882;BME280;40775;51.448;4.742;2023-05-29T03:25:20;102294.06;;;12.67;100.00
54882;BME280;40775;51.448;4.742;2023-05-29T03:27:47;102294.06;;;12.67;100.00
54882;BME280;40775;51.448;4.742;2023-05-29T03:30:17;102291.81;;;12.54;100.00
54882;BME280;40775;51.448;4.742;2023-05-29T03:32:46;102299.00;;;12.58;100.00
54882;BME280;40775;51.448;4.742;2023-05-29T03:35:13;102302.31;;;12.53;100.00
54882;BME280;40775;51.448;4.742;2023-05-29T03:37:40;102299.72;;;12.54;100.00
54882;BME280;40775;51.448;4.742;2023-05-29T03:40:08;102305.16;;;12.59;100.00
54882;BME280;40775;51.448;4.742;2023-05-29T03:42:35;102298.56;;;12.46;100.00
54882;BME280;40775;51.448;4.742;2023-05-29T03:45:03;102309.16;;;12.48;100.00
54882;BME280;40775;51.448;4.742;2023-05-29T03:47:30;102310.38;;;12.57;100.00
54882;BME280;40775;51.448;4.742;2023-05-29T03:49:57;102311.00;;;12.50;100.00
54882;BME280;40775;51.448;4.742;2023-05-29T03:52:24;102322.16;;;12.43;100.00
54882;BME280;40775;51.448;4.742;2023-05-29T03:54:52;102314.09;;;12.38;100.00
54882;BME280;40775;51.448;4.742;2023-05-29T03:57:22;102309.16;;;12.48;100.00
54882;BME280;40775;51.448;4.742;2023-05-29T03:59:53;102305.31;;;12.38;100.00
54882;BME280;40775;51.448;4.742;2023-05-29T04:02:20;102311.69;;;12.45;100.00
54882;BME280;40775;51.448;4.742;2023-05-29T04:04:47;102312.31;;;12.37;100.00
54882;BME280;40775;51.448;4.742;2023-05-29T04:07:15;102317.13;;;12.49;100.00
54882;BME280;40775;51.448;4.742;2023-05-29T04:09:44;102332.00;;;12.25;100.00
54882;BME280;40775;51.448;4.742;2023-05-29T04:12:11;102330.69;;;12.36;100.00
54882;BME280;40775;51.448;4.742;2023-05-29T04:14:38;102337.69;;;12.35;100.00
54882;BME280;40775;51.448;4.742;2023-05-29T04:17:05;102339.81;;;12.46;100.00
54882;BME280;40775;51.448;4.742;2023-05-29T04:19:33;102338.72;;;12.39;100.00
54882;BME280;40775;51.448;4.742;2023-05-29T04:22:00;102349.50;;;12.47;100.00
54882;BME280;40775;51.448;4.742;2023-05-29T04:24:27;102343.03;;;12.37;100.00
54882;BME280;40775;51.448;4.742;2023-05-29T04:26:54;102335.97;;;12.36;100.00
54882;BME280;40775;51.448;4.742;2023-05-29T04:29:21;102342.78;;;12.31;100.00
54882;BME280;40775;51.448;4.742;2023-05-29T04:31:49;102339.53;;;12.38;100.00
54882;BME280;40775;51.448;4.742;2023-05-29T04:34:18;102349.06;;;12.34;100.00
54882;BME280;40775;51.448;4.742;2023-05-29T04:36:47;102344.97;;;12.43;100.00
54882;BME280;40775;51.448;4.742;2023-05-29T04:39:14;102335.00;;;12.34;100.00
54882;BME280;40775;51.448;4.742;2023-05-29T04:41:42;102338.13;;;12.48;100.00
54882;BME280;40775;51.448;4.742;2023-05-29T04:44:09;102345.34;;;12.53;100.00
54882;BME280;40775;51.448;4.742;2023-05-29T04:46:40;102347.88;;;12.50;100.00
54882;BME280;40775;51.448;4.742;2023-05-29T04:49:11;102346.81;;;12.45;100.00
54882;BME280;40775;51.448;4.742;2023-05-29T04:51:39;102344.50;;;12.54;100.00
54882;BME280;40775;51.448;4.742;2023-05-29T04:54:09;102343.47;;;12.49;100.00
54882;BME280;40775;51.448;4.742;2023-05-29T04:56:37;102354.72;;;12.45;100.00
54882;BME280;40775;51.448;4.742;2023-05-29T04:59:04;102348.03;;;12.55;100.00
54882;BME280;40775;51.448;4.742;2023-05-29T05:01:32;102353.38;;;12.56;100.00
54882;BME280;40775;51.448;4.742;2023-05-29T05:04:00;102353.63;;;12.62;100.00
54882;BME280;40775;51.448;4.742;2023-05-29T05:06:28;102348.19;;;12.59;100.00
54882;BME280;40775;51.448;4.742;2023-05-29T05:08:56;102352.41;;;12.78;100.00
54882;BME280;40775;51.448;4.742;2023-05-29T05:11:23;102357.31;;;12.67;100.00
54882;BME280;40775;51.448;4.742;2023-05-29T05:13:50;102356.69;;;12.75;100.00
54882;BME280;40775;51.448;4.742;2023-05-29T05:16:18;102361.25;;;12.80;100.00
54882;BME280;40775;51.448;4.742;2023-05-29T05:18:45;102362.25;;;12.84;100.00
54882;BME280;40775;51.448;4.742;2023-05-29T05:21:12;102373.03;;;12.90;100.00
54882;BME280;40775;51.448;4.742;2023-05-29T05:23:40;102367.03;;;12.94;100.00
54882;BME280;40775;51.448;4.742;2023-05-29T05:26:23;102376.03;;;13.00;100.00
54882;BME280;40775;51.448;4.742;2023-05-29T05:28:54;102381.63;;;13.10;100.00
54882;BME280;40775;51.448;4.742;2023-05-29T05:31:23;102377.66;;;13.21;100.00
54882;BME280;40775;51.448;4.742;2023-05-29T05:33:50;102379.00;;;13.10;100.00
54882;BME280;40775;51.448;4.742;2023-05-29T05:36:17;102387.69;;;13.07;100.00
54882;BME280;40775;51.448;4.742;2023-05-29T05:38:44;102386.53;;;13.23;100.00
54882;BME280;40775;51.448;4.742;2023-05-29T05:41:11;102384.56;;;13.43;100.00
54882;BME280;40775;51.448;4.742;2023-05-29T05:43:38;102383.94;;;13.24;100.00
54882;BME280;40775;51.448;4.742;2023-05-29T05:46:06;102403.13;;;14.88;100.00
54882;BME280;40775;51.448;4.742;2023-05-29T05:48:33;102398.13;;;16.43;100.00
54882;BME280;40775;51.448;4.742;2023-05-29T05:51:03;102384.06;;;17.38;100.00
54882;BME280;40775;51.448;4.742;2023-05-29T05:53:30;102373.63;;;18.07;100.00
54882;BME280;40775;51.448;4.742;2023-05-29T05:55:57;102378.72;;;18.56;100.00
54882;BME280;40775;51.448;4.742;2023-05-29T05:58:25;102372.97;;;18.93;100.00
54882;BME280;40775;51.448;4.742;2023-05-29T06:00:52;102372.38;;;19.23;100.00
54882;BME280;40775;51.448;4.742;2023-05-29T06:03:20;102380.59;;;19.48;100.00
54882;BME280;40775;51.448;4.742;2023-05-29T06:05:48;102368.31;;;19.68;100.00
54882;BME280;40775;51.448;4.742;2023-05-29T06:08:15;102375.56;;;19.84;100.00
54882;BME280;40775;51.448;4.742;2023-05-29T06:10:42;102357.41;;;14.61;100.00
54882;BME280;40775;51.448;4.742;2023-05-29T06:13:12;102368.03;;;14.04;100.00
54882;BME280;40775;51.448;4.742;2023-05-29T06:15:39;102376.38;;;14.17;100.00
54882;BME280;40775;51.448;4.742;2023-05-29T06:18:07;102377.25;;;14.18;100.00
54882;BME280;40775;51.448;4.742;2023-05-29T06:20:34;102383.56;;;14.23;100.00
54882;BME280;40775;51.448;4.742;2023-05-29T06:23:02;102390.44;;;14.16;100.00
54882;BME280;40775;51.448;4.742;2023-05-29T06:25:30;102388.75;;;14.48;100.00
54882;BME280;40775;51.448;4.742;2023-05-29T06:28:01;102386.66;;;14.67;100.00
54882;BME280;40775;51.448;4.742;2023-05-29T06:30:28;102393.56;;;14.62;100.00
54882;BME280;40775;51.448;4.742;2023-05-29T06:32:55;102396.34;;;14.66;100.00
54882;BME280;40775;51.448;4.742;2023-05-29T06:35:23;102391.31;;;14.75;100.00
54882;BME280;40775;51.448;4.742;2023-05-29T06:37:50;102393.78;;;14.69;100.00
54882;BME280;40775;51.448;4.742;2023-05-29T06:40:17;102402.34;;;14.92;100.00
54882;BME280;40775;51.448;4.742;2023-05-29T06:42:44;102401.31;;;14.86;100.00
54882;BME280;40775;51.448;4.742;2023-05-29T06:45:12;102399.31;;;14.78;100.00
54882;BME280;40775;51.448;4.742;2023-05-29T06:47:43;102406.66;;;14.89;100.00
54882;BME280;40775;51.448;4.742;2023-05-29T06:50:10;102413.19;;;15.01;100.00
54882;BME280;40775;51.448;4.742;2023-05-29T06:52:37;102405.06;;;14.95;100.00
54882;BME280;40775;51.448;4.742;2023-05-29T06:55:05;102402.94;;;15.13;100.00
54882;BME280;40775;51.448;4.742;2023-05-29T06:57:32;102395.09;;;15.17;100.00
54882;BME280;40775;51.448;4.742;2023-05-29T06:59:59;102400.63;;;15.60;100.00
54882;BME280;40775;51.448;4.742;2023-05-29T07:02:26;102396.09;;;15.56;100.00
54882;BME280;40775;51.448;4.742;2023-05-29T07:04:53;102392.47;;;15.53;100.00
54882;BME280;40775;51.448;4.742;2023-05-29T07:07:21;102395.88;;;15.47;100.00
54882;BME280;40775;51.448;4.742;2023-05-29T07:09:47;102385.34;;;15.50;100.00
54882;BME280;40775;51.448;4.742;2023-05-29T07:12:14;102395.91;;;15.49;100.00
54882;BME280;40775;51.448;4.742;2023-05-29T07:14:42;102392.38;;;15.84;100.00
54882;BME280;40775;51.448;4.742;2023-05-29T07:17:09;102392.00;;;15.67;100.00
54882;BME280;40775;51.448;4.742;2023-05-29T07:19:36;102396.19;;;15.59;100.00
54882;BME280;40775;51.448;4.742;2023-05-29T07:22:03;102392.88;;;15.68;100.00
54882;BME280;40775;51.448;4.742;2023-05-29T07:24:30;102400.25;;;15.81;100.00
54882;BME280;40775;51.448;4.742;2023-05-29T07:26:57;102398.25;;;16.08;100.00
54882;BME280;40775;51.448;4.742;2023-05-29T07:29:25;102401.28;;;16.25;100.00
54882;BME280;40775;51.448;4.742;2023-05-29T07:31:52;102397.00;;;16.32;100.00
54882;BME280;40775;51.448;4.742;2023-05-29T07:34:19;102397.78;;;16.26;100.00
54882;BME280;40775;51.448;4.742;2023-05-29T07:37:00;102407.72;;;16.38;100.00
54882;BME280;40775;51.448;4.742;2023-05-29T07:39:28;102399.94;;;16.44;100.00
54882;BME280;40775;51.448;4.742;2023-05-29T07:41:55;102387.91;;;16.61;100.00
54882;BME280;40775;51.448;4.742;2023-05-29T07:44:22;102395.28;;;16.75;100.00
54882;BME280;40775;51.448;4.742;2023-05-29T07:46:50;102395.09;;;16.67;100.00
54882;BME280;40775;51.448;4.742;2023-05-29T07:49:17;102398.72;;;16.71;100.00
54882;BME280;40775;51.448;4.742;2023-05-29T07:51:44;102393.31;;;16.66;100.00
54882;BME280;40775;51.448;4.742;2023-05-29T07:54:11;102395.47;;;16.85;100.00
54882;BME280;40775;51.448;4.742;2023-05-29T07:56:38;102403.44;;;16.85;100.00
54882;BME280;40775;51.448;4.742;2023-05-29T07:59:07;102407.19;;;16.96;100.00
54882;BME280;40775;51.448;4.742;2023-05-29T08:01:37;102405.53;;;17.02;100.00
54882;BME280;40775;51.448;4.742;2023-05-29T08:04:04;102408.13;;;16.98;100.00
54882;BME280;40775;51.448;4.742;2023-05-29T08:06:31;102405.63;;;17.06;100.00
54882;BME280;40775;51.448;4.742;2023-05-29T08:09:02;102394.66;;;17.36;100.00
54882;BME280;40775;51.448;4.742;2023-05-29T08:11:29;102394.69;;;17.38;100.00
54882;BME280;40775;51.448;4.742;2023-05-29T08:13:58;102405.41;;;17.45;100.00
54882;BME280;40775;51.448;4.742;2023-05-29T08:16:26;102409.94;;;17.51;100.00
54882;BME280;40775;51.448;4.742;2023-05-29T08:18:54;102404.50;;;17.43;100.00
54882;BME280;40775;51.448;4.742;2023-05-29T08:21:21;102405.72;;;17.62;100.00
54882;BME280;40775;51.448;4.742;2023-05-29T08:23:48;102414.38;;;17.52;100.00
54882;BME280;40775;51.448;4.742;2023-05-29T08:26:15;102413.59;;;17.56;100.00
54882;BME280;40775;51.448;4.742;2023-05-29T08:28:42;102405.84;;;17.70;100.00
54882;BME280;40775;51.448;4.742;2023-05-29T08:31:09;102408.66;;;17.79;100.00
54882;BME280;40775;51.448;4.742;2023-05-29T08:33:37;102399.94;;;17.86;100.00
54882;BME280;40775;51.448;4.742;2023-05-29T08:36:04;102396.47;;;17.93;100.00
54882;BME280;40775;51.448;4.742;2023-05-29T08:38:31;102402.84;;;18.06;100.00
54882;BME280;40775;51.448;4.742;2023-05-29T08:40:59;102401.25;;;18.15;100.00
54882;BME280;40775;51.448;4.742;2023-05-29T08:43:32;102413.66;;;18.15;100.00
54882;BME280;40775;51.448;4.742;2023-05-29T08:46:02;102412.47;;;17.96;100.00
54882;BME280;40775;51.448;4.742;2023-05-29T08:48:30;102416.13;;;18.04;100.00
54882;BME280;40775;51.448;4.742;2023-05-29T08:50:58;102408.31;;;18.15;100.00
54882;BME280;40775;51.448;4.742;2023-05-29T08:53:29;102427.16;;;18.32;100.00
54882;BME280;40775;51.448;4.742;2023-05-29T08:55:58;102427.25;;;18.38;100.00
54882;BME280;40775;51.448;4.742;2023-05-29T08:58:26;102417.56;;;18.41;100.00
54882;BME280;40775;51.448;4.742;2023-05-29T09:00:53;102429.19;;;18.51;100.00
54882;BME280;40775;51.448;4.742;2023-05-29T09:03:23;102421.31;;;18.59;100.00
54882;BME280;40775;51.448;4.742;2023-05-29T09:05:50;102422.38;;;18.68;100.00
54882;BME280;40775;51.448;4.742;2023-05-29T09:08:18;102417.13;;;18.76;100.00
54882;BME280;40775;51.448;4.742;2023-05-29T09:10:45;102420.59;;;18.69;100.00
54882;BME280;40775;51.448;4.742;2023-05-29T09:13:13;102417.97;;;18.70;100.00
54882;BME280;40775;51.448;4.742;2023-05-29T09:15:41;102413.59;;;18.77;100.00
54882;BME280;40775;51.448;4.742;2023-05-29T09:18:12;102417.13;;;18.74;100.00
54882;BME280;40775;51.448;4.742;2023-05-29T09:20:40;102415.63;;;18.99;97.26
54882;BME280;40775;51.448;4.742;2023-05-29T09:23:09;102422.63;;;18.91;94.57
54882;BME280;40775;51.448;4.742;2023-05-29T09:25:41;102425.09;;;18.76;94.50
54882;BME280;40775;51.448;4.742;2023-05-29T09:28:12;102423.53;;;18.90;95.31
54882;BME280;40775;51.448;4.742;2023-05-29T09:30:46;102419.81;;;18.77;91.22
54882;BME280;40775;51.448;4.742;2023-05-29T09:33:15;102406.84;;;19.11;91.99
54882;BME280;40775;51.448;4.742;2023-05-29T09:35:47;102414.06;;;19.20;92.58
54882;BME280;40775;51.448;4.742;2023-05-29T09:38:17;102423.16;;;19.44;92.14
54882;BME280;40775;51.448;4.742;2023-05-29T09:41:05;102419.38;;;19.18;88.87
54882;BME280;40775;51.448;4.742;2023-05-29T09:43:33;102414.22;;;19.39;90.78
54882;BME280;40775;51.448;4.742;2023-05-29T09:46:01;102420.53;;;19.48;89.50
54882;BME280;40775;51.448;4.742;2023-05-29T09:48:29;102413.72;;;19.77;91.73
54882;BME280;40775;51.448;4.742;2023-05-29T09:50:57;102417.31;;;19.84;90.82
54882;BME280;40775;51.448;4.742;2023-05-29T09:53:27;102418.06;;;19.67;90.52
54882;BME280;40775;51.448;4.742;2023-05-29T09:55:56;102410.03;;;19.61;88.57
54882;BME280;40775;51.448;4.742;2023-05-29T09:58:27;102415.50;;;19.78;88.31
54882;BME280;40775;51.448;4.742;2023-05-29T10:00:55;102419.16;;;19.95;90.34
54882;BME280;40775;51.448;4.742;2023-05-29T10:03:25;102400.44;;;19.86;89.68
54882;BME280;40775;51.448;4.742;2023-05-29T10:05:55;102408.56;;;20.04;88.33
54882;BME280;40775;51.448;4.742;2023-05-29T10:08:26;102408.59;;;20.09;88.98
54882;BME280;40775;51.448;4.742;2023-05-29T10:11:04;102403.25;;;20.04;86.52
54882;BME280;40775;51.448;4.742;2023-05-29T10:13:39;102422.06;;;20.32;86.70
54882;BME280;40775;51.448;4.742;2023-05-29T10:16:11;102417.50;;;20.17;87.88
54882;BME280;40775;51.448;4.742;2023-05-29T10:18:44;102401.69;;;20.48;88.87
54882;BME280;40775;51.448;4.742;2023-05-29T10:21:13;102413.97;;;20.17;84.46
54882;BME280;40775;51.448;4.742;2023-05-29T10:23:46;102408.66;;;20.26;84.51
54882;BME280;40775;51.448;4.742;2023-05-29T10:26:24;102409.69;;;20.40;84.26
54882;BME280;40775;51.448;4.742;2023-05-29T10:29:39;102410.38;;;20.15;80.30
54882;BME280;40775;51.448;4.742;2023-05-29T10:35:23;102387.53;;;20.59;80.26
54882;BME280;40775;51.448;4.742;2023-05-29T10:37:54;102387.53;;;20.64;81.19
54882;BME280;40775;51.448;4.742;2023-05-29T10:40:26;102381.31;;;20.66;79.05
54882;BME280;40775;51.448;4.742;2023-05-29T10:42:54;102391.13;;;20.75;78.10
54882;BME280;40775;51.448;4.742;2023-05-29T10:50:41;102391.19;;;20.86;75.60
54882;BME280;40775;51.448;4.742;2023-05-29T10:53:16;102381.41;;;20.94;75.13
54882;BME280;40775;51.448;4.742;2023-05-29T10:55:45;102383.16;;;20.86;75.05
54882;BME280;40775;51.448;4.742;2023-05-29T10:58:24;102378.75;;;21.15;76.90
54882;BME280;40775;51.448;4.742;2023-05-29T11:00:54;102380.56;;;21.25;75.67
54882;BME280;40775;51.448;4.742;2023-05-29T11:03:32;102382.28;;;20.97;73.85
54882;BME280;40775;51.448;4.742;2023-05-29T11:06:21;102382.28;;;20.94;72.82
54882;BME280;40775;51.448;4.742;2023-05-29T11:08:55;102377.00;;;21.25;73.22
54882;BME280;40775;51.448;4.742;2023-05-29T11:11:32;102369.88;;;21.57;72.59
54882;BME280;40775;51.448;4.742;2023-05-29T11:14:04;102376.09;;;21.21;72.79
54882;BME280;40775;51.448;4.742;2023-05-29T11:19:07;102363.66;;;21.48;73.77
54882;BME280;40775;51.448;4.742;2023-05-29T11:24:23;102366.34;;;21.66;70.58
54882;BME280;40775;51.448;4.742;2023-05-29T11:27:00;102375.16;;;22.09;71.95
54882;BME280;40775;51.448;4.742;2023-05-29T11:29:33;102369.88;;;21.73;70.68
54882;BME280;40775;51.448;4.742;2023-05-29T11:32:06;102377.91;;;21.68;69.57
54882;BME280;40775;51.448;4.742;2023-05-29T11:34:40;102369.84;;;21.82;68.36
54882;BME280;40775;51.448;4.742;2023-05-29T11:37:08;102377.84;;;22.00;68.43
54882;BME280;40775;51.448;4.742;2023-05-29T11:39:38;102365.38;;;21.95;67.95
54882;BME280;40775;51.448;4.742;2023-05-29T11:42:05;102369.84;;;22.05;65.76
54882;BME280;40775;51.448;4.742;2023-05-29T11:44:33;102360.00;;;22.01;66.47
54882;BME280;40775;51.448;4.742;2023-05-29T11:47:05;102360.94;;;21.83;67.37
54882;BME280;40775;51.448;4.742;2023-05-29T11:49:35;102353.78;;;21.88;67.21
54882;BME280;40775;51.448;4.742;2023-05-29T11:52:07;102354.66;;;22.13;68.21
54882;BME280;40775;51.448;4.742;2023-05-29T11:54:43;102351.00;;;22.35;66.77
54882;BME280;40775;51.448;4.742;2023-05-29T11:57:20;102347.47;;;22.30;66.78
54882;BME280;40775;51.448;4.742;2023-05-29T11:59:49;102361.72;;;22.34;66.15
54882;BME280;40775;51.448;4.742;2023-05-29T12:02:19;102360.00;;;22.10;62.14
54882;BME280;40775;51.448;4.742;2023-05-29T12:05:06;102359.09;;;22.22;63.64
54882;BME280;40775;51.448;4.742;2023-05-29T12:07:36;102345.59;;;22.50;62.59
54882;BME280;40775;51.448;4.742;2023-05-29T12:10:14;102352.69;;;22.55;64.08
54882;BME280;40775;51.448;4.742;2023-05-29T12:12:42;102352.75;;;22.42;62.17
54882;BME280;40775;51.448;4.742;2023-05-29T12:15:13;102357.25;;;22.33;61.89
54882;BME280;40775;51.448;4.742;2023-05-29T12:17:41;102360.00;;;22.19;60.40
54882;BME280;40775;51.448;4.742;2023-05-29T12:20:09;102350.03;;;22.45;62.60
54882;BME280;40775;51.448;4.742;2023-05-29T12:22:40;102352.69;;;22.55;59.29
54882;BME280;40775;51.448;4.742;2023-05-29T12:25:10;102365.19;;;22.52;59.09
54882;BME280;40775;51.448;4.742;2023-05-29T12:27:41;102362.53;;;22.52;57.61
54882;BME280;40775;51.448;4.742;2023-05-29T12:32:59;102347.25;;;22.74;58.89
54882;BME280;40775;51.448;4.742;2023-05-29T12:35:29;102350.78;;;22.81;58.18
54882;BME280;40775;51.448;4.742;2023-05-29T12:37:58;102356.25;;;22.57;56.99
54882;BME280;40775;51.448;4.742;2023-05-29T12:40:26;102359.81;;;22.59;56.46
54882;BME280;40775;51.448;4.742;2023-05-29T12:43:07;102350.19;;;22.19;54.40
54882;BME280;40775;51.448;4.742;2023-05-29T12:45:37;102345.47;;;22.75;54.91
54882;BME280;40775;51.448;4.742;2023-05-29T12:48:07;102349.00;;;22.72;53.30
54882;BME280;40775;51.448;4.742;2023-05-29T12:50:39;102351.81;;;22.51;53.81
54882;BME280;40775;51.448;4.742;2023-05-29T12:53:12;102352.56;;;22.82;52.54
54882;BME280;40775;51.448;4.742;2023-05-29T12:55:42;102344.56;;;22.74;52.21
54882;BME280;40775;51.448;4.742;2023-05-29T12:58:12;102355.16;;;22.96;50.49
54882;BME280;40775;51.448;4.742;2023-05-29T13:00:41;102342.72;;;22.87;51.10
54882;BME280;40775;51.448;4.742;2023-05-29T13:03:09;102349.69;;;23.09;51.54
54882;BME280;40775;51.448;4.742;2023-05-29T13:05:38;102356.88;;;23.04;51.14
54882;BME280;40775;51.448;4.742;2023-05-29T13:08:06;102351.59;;;22.94;48.88
54882;BME280;40775;51.448;4.742;2023-05-29T13:10:35;102348.06;;;22.87;47.80
54882;BME280;40775;51.448;4.742;2023-05-29T13:13:03;102340.94;;;22.86;48.02
54882;BME280;40775;51.448;4.742;2023-05-29T13:15:30;102352.44;;;23.00;48.02
54882;BME280;40775;51.448;4.742;2023-05-29T13:18:00;102348.94;;;22.89;46.88